Taos Ski Valley, NM

10:43 AM MDT on October 31, 2014 (GMT -0600)
Canon | Change Station
CLOSE
Current Station
Personal Weather Station
Location: Taos, NM
Elevation: 7001 ft
Nearby Weather Stations

Elev 7001 ft 36.39 °N, 105.56 °W | Updated 14 minutes ago

Clear
Clear
55.8 °F
Feels Like 55.8 °F
N
3.7
Wind Variable Wind from WNW

Today
High -- | Low -- °F
--% Chance of Precip.
Yesterday
High -- | Low -- °F
Precip. -- in
7:24 AM 6:06 PM
First Quarter, 57% visible
Pressure 30.45 in
Visibility 10.0 miles
Clouds Clear
Dew Point 29 °F
Humidity 35%
Rainfall 0.00 in
Snow Depth Not available.
UV 3 out of 12
Pollen 1.40 out of 12
Air Quality Not available.
Flu Activity Not available.
METAR KSKX 311635Z AUTO 29004KT 10SM CLR 08/M06 A3045 RMK AO1

More Conditions Fewer Conditions

Pressure 30.45 in
Visibility 10.0 miles
Clouds Clear
Dew Point 29 °F
Humidity 35%
Rainfall 0.00 in
Snow Depth Not available.
UV 3 out of 12
Pollen 1.40 out of 12
Air Quality Not available.
Flu Activity Not available.
METAR KSKX 311635Z AUTO 29004KT 10SM CLR 08/M06 A3045 RMK AO1

More Conditions Fewer Conditions

10-Day Weather Forecast

Almanac

Astronomy

Oct. 31, 2014 Rise Set
Actual Time
Civil Twilight
Nautical Twilight
Astronomical Twilight
Moon
Length of Visible Light
Length of Day
Tomorrow will be .
, % of the Moon is Illuminated

Today's Extremes

State Highs State Lows

Community

WunderPhotos

Upload Photos

1,766,657 photos uploaded!

WunderBlogs® & News

Nearby

Air Quality

  Air Quality AQ Index Pollutant
Not available.

Snow Depth

Station Depth Elevation

Earthquake Activity

City Distance Mag. Time & Date
Minimum magnitude displayed is 2.5.

Coastal Water Temperatures

Place Temperature

Nearby Weather Stations